KQ5S-13 Weather Reports


Display with metric or nautical units.
time (UTC)temp
F
wind
direction
speed
MPH
gust
MPH
rain 1hr
in
rain 24hr
in
rain mn
in
humidity
%
barometer
mb
20210917232016 77 90 0.0 1.0 0.00 0.00 0.00 88 1018.6
20210917231015 77 135 0.0 2.0 0.00 0.00 0.00 88 1018.6
20210917230015 77 180 0.0 3.0 0.00 0.00 0.00 87 1018.6
20210917225015 77 0.0 0.0 0.00 0.00 0.00 87 1018.7
20210917224015 77 180 0.0 1.0 0.00 0.00 0.00 87 1018.7
20210917223015 77 180 0.0 3.0 0.00 0.00 0.00 87 1018.6
20210917222015 77 158 1.0 4.0 0.00 0.00 0.00 87 1018.6
20210917221015 78 158 3.0 7.0 0.00 0.00 0.00 86 1018.5
20210917220016 78 158 1.0 4.0 0.00 0.00 0.00 86 1018.5
20210917215016 78 158 0.0 2.0 0.00 0.00 0.00 86 1018.3
20210917214015 78 158 0.0 1.0 0.00 0.00 0.00 85 1018.3
20210917213015 78 158 2.0 8.0 0.00 0.00 0.00 85 1018.1
20210917212016 78 158 0.0 2.0 0.00 0.00 0.00 86 1018.1
20210917211015 78 135 0.0 7.0 0.00 0.00 0.00 86 1018.2
20210917210015 78 135 1.0 5.0 0.00 0.00 0.00 86 1018.0
20210917205016 78 113 2.0 6.0 0.00 0.00 0.00 87 1018.2
20210917204015 78 113 0.0 3.0 0.00 0.00 0.00 87 1018.4
20210917203016 77 158 0.0 6.0 0.00 0.00 0.00 88 1018.4
20210917202015 77 90 0.0 4.0 0.00 0.00 0.00 88 1018.5
20210917201015 77 90 2.0 6.0 0.00 0.00 0.00 88 1018.5
20210917200016 78 113 0.0 1.0 0.00 0.00 0.00 87 1018.7
20210917195015 78 113 0.0 3.0 0.00 0.00 0.00 86 1019.0
20210917194015 78 158 1.0 4.0 0.00 0.00 0.00 86 1018.9
20210917193015 77 113 0.0 1.0 0.00 0.00 0.00 87 1018.9
20210917192015 77 90 0.0 1.0 0.00 0.00 0.00 87 1019.1
20210917191017 77 90 1.0 5.0 0.00 0.00 0.00 86 1019.3
20210917190017 77 113 0.0 3.0 0.00 0.00 0.00 86 1019.5
20210917185017 77 113 0.0 1.0 0.00 0.00 0.00 87 1019.5
20210917184017 77 90 1.0 5.0 0.00 0.00 0.00 86 1019.7
20210917183017 77 113 0.0 2.0 0.00 0.00 0.00 87 1019.9
20210917182018 77 113 0.0 3.0 0.00 0.00 0.00 87 1020.0
20210917181017 77 90 1.0 4.0 0.00 0.00 0.00 87 1020.2
20210917180017 77 158 1.0 4.0 0.00 0.00 0.00 86 1020.4
20210917175017 77 90 2.0 7.0 0.00 0.00 0.00 87 1020.4
20210917174017 76 135 1.0 4.0 0.00 0.00 0.00 87 1020.4
20210917173018 76 158 1.0 5.0 0.00 0.00 0.00 87 1020.5
20210917172017 76 113 1.0 5.0 0.00 0.00 0.00 87 1020.6
20210917171017 76 158 2.0 6.0 0.00 0.00 0.00 86 1020.6
20210917170017 76 158 2.0 9.0 0.00 0.00 0.00 87 1020.6
20210917165017 76 135 2.0 7.0 0.00 0.00 0.00 87 1020.7
20210917164017 76 180 5.0 10.0 0.00 0.00 0.00 86 1020.6
20210917163017 76 158 4.0 11.0 0.00 0.00 0.00 86 1020.8
20210917162017 76 158 2.0 7.0 0.00 0.00 0.00 87 1020.8
20210917161017 76 158 4.0 10.0 0.00 0.00 0.00 87 1020.8
20210917160017 75 135 3.0 9.0 0.00 0.00 0.00 88 1020.8
20210917155017 75 135 3.0 9.0 0.00 0.00 0.00 89 1020.9
20210917154017 74 158 1.0 6.0 0.00 0.00 0.00 90 1020.9
20210917153017 74 180 2.0 6.0 0.00 0.00 0.00 89 1020.9
20210917152016 74 180 1.0 5.0 0.00 0.00 0.00 90 1020.8
20210917151017 74 135 1.0 7.0 0.00 0.00 0.00 90 1020.7
20210917150017 73 158 1.0 7.0 0.00 0.00 0.00 90 1020.6
20210917145017 73 135 2.0 7.0 0.00 0.00 0.00 90 1020.5
20210917144016 73 135 1.0 8.0 0.00 0.00 0.00 90 1020.5
20210917143018 73 158 1.0 7.0 0.00 0.00 0.00 90 1020.5
20210917142017 73 113 1.0 7.0 0.00 0.00 0.00 91 1020.3
20210917141016 73 135 1.0 5.0 0.00 0.00 0.00 91 1020.2
20210917140017 73 135 1.0 7.0 0.00 0.00 0.00 91 1020.1
20210917135017 73 113 1.0 7.0 0.00 0.00 0.00 91 1019.9
20210917134016 73 113 1.0 5.0 0.00 0.00 0.00 91 1019.7
20210917133016 72 135 1.0 4.0 0.00 0.00 0.00 92 1019.6
20210917132016 72 113 1.0 5.0 0.00 0.00 0.00 92 1019.5
20210917131017 72 180 1.0 6.0 0.00 0.00 0.00 92 1019.5
20210917130016 72 158 2.0 7.0 0.00 0.00 0.00 92 1019.5
20210917125017 72 113 3.0 9.0 0.00 0.00 0.00 93 1019.4
20210917124016 71 180 1.0 4.0 0.00 0.00 0.00 93 1019.2
20210917123016 71 135 1.0 5.0 0.00 0.00 0.00 93 1019.1
20210917122016 71 135 1.0 5.0 0.00 0.00 0.00 93 1019.1
20210917121017 71 158 1.0 4.0 0.00 0.00 0.00 93 1019.1
20210917120017 71 158 0.0 1.0 0.00 0.00 0.00 93 1018.9
20210917115016 71 180 0.0 1.0 0.00 0.00 0.00 93 1018.9
20210917114016 71 135 0.0 3.0 0.00 0.00 0.00 93 1018.7
20210917113016 71 113 1.0 7.0 0.00 0.00 0.00 93 1018.6
20210917112016 71 135 0.0 4.0 0.00 0.00 0.00 93 1018.7
20210917111016 71 113 0.0 2.0 0.00 0.00 0.00 93 1018.7
20210917110016 71 135 0.0 3.0 0.00 0.00 0.00 93 1018.7
20210917105016 71 135 0.0 4.0 0.00 0.00 0.00 93 1018.5
20210917104017 71 135 0.0 3.0 0.00 0.00 0.00 93 1018.5
20210917103017 71 135 0.0 4.0 0.00 0.00 0.00 93 1018.4
20210917102016 71 180 0.0 3.0 0.00 0.00 0.00 93 1018.3
20210917101017 71 90 1.0 5.0 0.00 0.00 0.00 93 1018.1
20210917100016 71 135 0.0 3.0 0.00 0.00 0.00 93 1018.0
20210917095017 71 158 0.0 1.0 0.00 0.00 0.00 93 1018.0
20210917094017 71 135 0.0 3.0 0.00 0.00 0.00 93 1017.7
20210917093016 71 135 0.0 3.0 0.00 0.00 0.00 93 1017.7
20210917092016 71 135 1.0 4.0 0.00 0.00 0.00 93 1017.6
20210917091016 71 135 1.0 5.0 0.00 0.00 0.00 93 1017.6
20210917090016 71 135 1.0 7.0 0.00 0.00 0.00 93 1017.4
20210917085016 71 113 0.0 2.0 0.00 0.00 0.00 93 1017.4
20210917084016 71 135 0.0 4.0 0.00 0.00 0.00 93 1017.5
20210917083020 71 135 1.0 4.0 0.00 0.00 0.00 93 1017.5
20210917082016 71 135 1.0 7.0 0.00 0.00 0.00 93 1017.5
20210917081016 71 113 0.0 2.0 0.00 0.00 0.00 93 1017.3
20210917080016 71 158 0.0 4.0 0.00 0.00 0.00 93 1017.4
20210917075016 71 113 0.0 2.0 0.00 0.00 0.00 93 1017.4
20210917074016 71 135 0.0 3.0 0.00 0.00 0.00 93 1017.4
20210917073016 71 113 0.0 3.0 0.00 0.00 0.00 92 1017.5
20210917072016 71 90 0.0 4.0 0.00 0.00 0.00 92 1017.4
20210917071016 71 135 0.0 3.0 0.00 0.00 0.00 92 1017.4
20210917070016 71 135 0.0 4.0 0.00 0.00 0.00 92 1017.4
20210917065016 71 135 0.0 3.0 0.00 0.00 0.00 92 1017.5
20210917064016 71 113 1.0 5.0 0.00 0.00 0.00 92 1017.6
20210917063016 72 135 1.0 5.0 0.00 0.00 0.00 92 1017.7
20210917062016 72 135 1.0 4.0 0.00 0.00 0.00 92 1017.8
20210917061016 72 135 0.0 7.0 0.00 0.00 0.00 92 1017.9
20210917060016 72 135 1.0 4.0 0.00 0.00 0.00 91 1018.1
20210917055016 72 135 1.0 7.0 0.00 0.00 0.00 91 1018.0
20210917054016 72 113 0.0 2.0 0.00 0.00 0.00 91 1018.1
20210917053017 72 180 0.0 2.0 0.00 0.00 0.00 91 1018.1
20210917052016 72 135 0.0 3.0 0.00 0.00 0.00 91 1018.1
20210917051016 72 158 1.0 7.0 0.00 0.00 0.00 91 1018.2
20210917050016 72 135 1.0 8.0 0.00 0.00 0.00 91 1018.2
20210917045016 72 158 2.0 5.0 0.00 0.00 0.00 91 1018.1
20210917044016 72 135 3.0 10.0 0.00 0.00 0.00 91 1018.1
20210917043016 72 113 1.0 9.0 0.00 0.00 0.00 91 1018.0
20210917042016 72 135 3.0 8.0 0.00 0.00 0.00 91 1017.9
20210917041016 72 135 2.0 9.0 0.00 0.00 0.00 91 1017.8
20210917040016 72 135 1.0 5.0 0.00 0.00 0.00 91 1017.8
20210917035017 72 113 1.0 8.0 0.00 0.00 0.00 91 1017.8
20210917034016 73 90 1.0 7.0 0.00 0.00 0.00 91 1017.7
20210917033016 73 135 1.0 5.0 0.00 0.00 0.00 91 1017.7
20210917032016 73 90 2.0 8.0 0.00 0.00 0.00 91 1017.7
20210917031016 73 90 2.0 8.0 0.00 0.00 0.00 91 1017.8
20210917030016 73 113 2.0 8.0 0.00 0.00 0.00 91 1017.9
20210917025016 73 135 2.0 10.0 0.00 0.00 0.00 91 1017.8
20210917024016 73 135 1.0 5.0 0.00 0.00 0.00 91 1017.8
20210917023016 73 113 1.0 4.0 0.00 0.00 0.00 91 1017.9
20210917022016 73 113 1.0 7.0 0.00 0.00 0.00 91 1017.7
20210917021016 73 135 2.0 8.0 0.00 0.00 0.00 91 1017.7
20210917020016 73 90 3.0 11.0 0.00 0.00 0.00 91 1017.7
20210917015016 73 135 2.0 7.0 0.00 0.00 0.00 91 1017.7
20210917014017 73 135 2.0 7.0 0.00 0.00 0.00 91 1017.6
20210917013017 73 113 2.0 7.0 0.00 0.00 0.00 91 1017.6
20210917012016 73 90 2.0 8.0 0.00 0.00 0.00 91 1017.3
20210917011017 73 90 1.0 9.0 0.00 0.00 0.00 90 1017.1
20210917010016 73 90 1.0 5.0 0.00 0.00 0.00 90 1017.1
20210917005016 73 90 1.0 8.0 0.00 0.00 0.00 90 1016.9
20210917004016 74 90 1.0 5.0 0.00 0.00 0.00 90 1016.9
20210917003016 74 90 1.0 6.0 0.00 0.00 0.00 90 1016.9
20210917002016 74 90 0.0 3.0 0.00 0.00 0.00 90 1016.8
20210917001018 74 113 0.0 4.0 0.00 0.00 0.00 90 1016.7
20210917000016 74 90 2.0 8.0 0.00 0.00 0.00 89 1016.5
20210916235017 74 90 3.0 7.0 0.00 0.00 0.00 89 1016.4
20210916234016 74 90 3.0 8.0 0.00 0.00 0.00 89 1016.4
20210916233016 75 90 2.0 6.0 0.00 0.00 0.00 88 1016.4